• Join FlightAware (Why Join?)
  • Login
  • US Flag 
06:01AM EDT


 

Airport Tracker/Info


-or-


 

Live Flight TrackerFlight Track Log ✈ N479B ✈ 13-Feb-2014 ✈ KJAN - KTUP

Flight Track Log - Related Links

Times and Time Zones

All times are in EST time to prevent confusion due to time zone crossing. See the N479B flight status page for this flight to view local times or setup timezone preferences in your user account.

Time Position Orientation Groundspeed Altitude Reporting Facility
EST Latitude Longitude Course Direction KTS MPH feet Rate Location/Type
05:11PM 32.4953 -90.1167 350° North 196 226 7,100  Level Memphis Center
05:12PM 32.5472 -90.1264 351° North 193 222 9,100 1,920 Climbing Memphis Center
05:13PM 32.6033 -90.1239 North 200 230 11,100 1,920 Climbing Memphis Center
05:14PM 32.6861 -90.1313 353° North  Level FlightAware Approximate
05:14PM 32.6586 -90.1125 10° North 203 234 13,100  Level Memphis Center
05:15PM 32.7504 -90.1434 350° North  Level FlightAware Approximate
05:15PM 32.7133 -90.1019 North 202 232 15,100  Level Memphis Center
05:16PM 32.7661 -90.0869 13° North 198 228 16,900 900 Climbing Memphis Center
05:17PM 32.8417 -90.0981 353° North 230 265 17,000  Climbing Memphis Center
05:18PM 32.9097 -90.0522 29° Northeast 276 318 17,000  Level Memphis Center
05:19PM 32.9775 -89.9911 37° Northeast 300 345 17,000  Level Memphis Center
05:20PM 33.0458 -89.9272 38° Northeast 306 352 17,000  Level Memphis Center
05:21PM 33.1128 -89.8650 38° Northeast 304 350 17,000  Level Memphis Center
05:22PM 33.1789 -89.8039 38° Northeast 300 345 17,000  Level Memphis Center
05:23PM 33.2442 -89.7431 38° Northeast 299 344 17,000  Level Memphis Center
05:24PM 33.3231 -89.6692 38° Northeast 300 345 17,000  Level Memphis Center
05:25PM 33.3881 -89.6078 38° Northeast 299 344 17,000  Level Memphis Center
05:26PM 33.4531 -89.5472 38° Northeast 298 343 17,000  Level Memphis Center
05:27PM 33.5172 -89.4864 38° Northeast 296 341 17,000  Level Memphis Center
05:28PM 33.5856 -89.4375 31° Northeast 288 331 17,000 -600 Level Memphis Center
05:29PM 33.6767 -89.3953 21° North 292 336 15,800 -1,320 Descending Memphis Center
05:30PM 33.7567 -89.3556 22° Northeast 307 353 14,300 -1,500 Descending Memphis Center
05:31PM 33.8331 -89.3189 22° Northeast 301 346 12,800 -1,440 Descending Memphis Center
05:32PM 33.9053 -89.2839 22° Northeast 287 330 11,400 -1,500 Descending Memphis Center
05:33PM 33.9778 -89.2489 22° Northeast 283 326 9,700 -1,980 Descending Memphis Center
05:34PM 34.0625 -89.2128 19° North 273 314 7,300 -2,280 Descending Memphis Center
05:35PM 34.1311 -89.1850 19° North 267 307 5,100 -1,740 Descending Memphis Center
05:36PM 34.1842 -89.1411 34° Northeast 259 298 3,800 -780 Descending Memphis Center
05:37PM 34.2017 -89.0686 74° East 238 274 3,500 -360 Descending Memphis Center
05:39PM 34.2119 -88.9911 81° East 226 260 3,100 -420 Descending Memphis Center
05:40PM 34.2099 -88.9037 68° East  Level FlightAware Approximate
05:47PM 34.2667 -88.7667 59° Northeast  Level FlightAware Approximate
05:48PM 34.2690 -88.7699 59° Northeast  Level Estimated
05:49PM 34.2667 -88.7667 59° Northeast  Level FlightAware Approximate